Grant, Montana
Current Conditions -  °F | °C
As of 5:53 AM on Friday 19 Dec 2014 (Local Time) from KDLN Reporting Station
Broken Clouds Broken Clouds  
Wind Chill: 19°   Ceiling: 8000
Heat Index: 27°   Visibility: 10mi
Dew Point: 21°   Wind: 8mph
Humidity: 78%   Direction: 170°S
Pressure: 29.99"   Gusts: NA
Location:  45.1146°N, 112.879°W
Report Text: KDLN 191253Z AUTO 17007KT 10SM BKN080 BKN095 M03/M06 A2999 RMK AO2 SLP186 T10281061
Loading
Personal Weather Stations






























Interactive Weather Map New forecast layout! Learn more

10-Day Weather Forecast

Advertisements
Track Severe Weather on mobile